createdAt,value
2017-11-20T00:01:55.939Z,8.70
2017-11-20T00:04:25.507Z,8.53
2017-11-20T00:06:55.166Z,8.20
2017-11-20T00:09:24.746Z,8.60
2017-11-20T00:11:53.572Z,10.90
2017-11-20T00:14:22.396Z,6.80
2017-11-20T00:16:51.234Z,8.93
2017-11-20T00:19:20.065Z,6.53
2017-11-20T00:21:48.890Z,6.50
2017-11-20T00:24:17.723Z,7.43
2017-11-20T00:26:46.549Z,9.73
2017-11-20T00:29:15.380Z,8.03
2017-11-20T00:31:44.276Z,6.83
2017-11-20T00:34:13.108Z,8.33
2017-11-20T00:36:41.930Z,10.90
2017-11-20T00:39:10.866Z,6.53
2017-11-20T00:41:39.850Z,7.70
2017-11-20T00:44:08.736Z,6.07
2017-11-20T00:46:37.571Z,7.23
2017-11-20T00:49:06.411Z,9.30
2017-11-20T00:51:35.231Z,8.03
2017-11-20T00:54:04.092Z,6.17
2017-11-20T00:56:32.928Z,9.60
2017-11-20T00:59:01.776Z,7.13
2017-11-20T01:01:30.619Z,7.07
2017-11-20T01:03:59.456Z,8.30
2017-11-20T01:06:28.275Z,7.33
2017-11-20T01:08:57.435Z,8.82
2017-11-20T01:11:26.994Z,7.50
2017-11-20T01:13:56.579Z,10.23
2017-11-20T01:16:26.189Z,8.60
2017-11-20T01:18:55.764Z,8.43
2017-11-20T01:21:24.654Z,8.50
2017-11-20T01:23:53.500Z,8.07
2017-11-20T01:26:22.325Z,11.23
2017-11-20T01:28:51.234Z,9.20
2017-11-20T01:31:20.066Z,9.17
2017-11-20T01:33:48.888Z,9.07
2017-11-20T01:36:17.706Z,10.57
2017-11-20T01:38:46.552Z,8.10
2017-11-20T01:41:15.377Z,9.93
2017-11-20T01:43:44.203Z,8.50
2017-11-20T01:46:13.032Z,9.70
2017-11-20T01:48:41.940Z,7.77
2017-11-20T01:51:10.833Z,8.20
2017-11-20T01:53:39.730Z,11.00
2017-11-20T01:56:08.617Z,13.17
2017-11-20T01:58:37.546Z,8.90
2017-11-20T02:01:06.403Z,12.53
2017-11-20T02:03:35.231Z,7.37
2017-11-20T02:06:04.064Z,9.13
2017-11-20T02:08:32.903Z,9.50
2017-11-20T02:11:01.731Z,7.50
2017-11-20T02:13:30.650Z,7.33
2017-11-20T02:15:59.891Z,7.30
2017-11-20T02:18:28.983Z,8.50
2017-11-20T02:20:58.658Z,8.37
2017-11-20T02:23:28.258Z,6.93
2017-11-20T02:25:57.827Z,6.20
2017-11-20T02:28:27.473Z,7.30
2017-11-20T02:30:57.050Z,9.40
2017-11-20T02:33:25.881Z,12.63
2017-11-20T02:35:54.725Z,7.50
2017-11-20T02:38:23.651Z,7.60
2017-11-20T02:40:52.542Z,8.07
2017-11-20T02:43:21.366Z,6.23
2017-11-20T02:45:50.231Z,6.13
2017-11-20T02:48:19.119Z,5.57
2017-11-20T02:50:47.959Z,7.10
2017-11-20T02:53:16.804Z,5.70
2017-11-20T02:55:45.651Z,5.73
2017-11-20T02:58:14.480Z,7.87
2017-11-20T03:00:43.326Z,7.43
2017-11-20T03:03:12.143Z,8.53
2017-11-20T03:05:40.971Z,5.43
2017-11-20T03:08:10.020Z,6.93
2017-11-20T03:10:38.851Z,8.53
2017-11-20T03:13:07.727Z,6.83
2017-11-20T03:15:36.629Z,8.97
2017-11-20T03:18:05.454Z,8.63
2017-11-20T03:20:34.271Z,5.60
2017-11-20T03:23:03.110Z,13.43
2017-11-20T03:25:31.937Z,7.67
2017-11-20T03:28:00.772Z,6.80
2017-11-20T03:30:29.610Z,10.87
2017-11-20T03:32:59.464Z,10.00
2017-11-20T03:35:29.044Z,9.03
2017-11-20T03:37:58.617Z,9.60
2017-11-20T03:40:28.293Z,8.50
2017-11-20T03:42:57.875Z,5.80
2017-11-20T03:45:26.696Z,8.60
2017-11-20T03:47:55.514Z,6.17
2017-11-20T03:50:24.356Z,7.20
2017-11-20T03:52:53.171Z,7.07
2017-11-20T03:55:21.998Z,6.67
2017-11-20T03:57:50.932Z,6.03
2017-11-20T04:00:19.754Z,6.27
2017-11-20T04:02:48.615Z,6.30
2017-11-20T04:05:17.515Z,8.03
2017-11-20T04:07:46.398Z,7.47
2017-11-20T04:10:15.348Z,6.93
2017-11-20T04:12:44.191Z,6.70
2017-11-20T04:15:13.022Z,7.93
2017-11-20T04:17:41.843Z,7.03
2017-11-20T04:20:10.679Z,10.50
2017-11-20T04:22:39.502Z,9.27
2017-11-20T04:25:08.337Z,7.47
2017-11-20T04:27:37.176Z,8.97
2017-11-20T04:30:06.003Z,8.23
2017-11-20T04:32:34.830Z,12.73
2017-11-20T04:35:03.694Z,7.30
2017-11-20T04:37:32.533Z,7.87
2017-11-20T04:40:01.373Z,8.10
2017-11-20T04:42:30.879Z,8.73
2017-11-20T04:45:00.482Z,7.00
2017-11-20T04:47:30.064Z,8.53
2017-11-20T04:49:59.639Z,5.67
2017-11-20T04:52:29.967Z,11.03
2017-11-20T04:54:59.552Z,7.07
2017-11-20T04:57:29.144Z,7.80
2017-11-20T04:59:57.984Z,6.03
2017-11-20T05:02:26.823Z,8.80
2017-11-20T05:04:55.823Z,9.83
2017-11-20T05:07:24.644Z,7.73
2017-11-20T05:09:53.491Z,6.93
2017-11-20T05:12:22.383Z,9.53
2017-11-20T05:14:51.210Z,7.53
2017-11-20T05:17:20.062Z,9.67
2017-11-20T05:19:48.891Z,8.43
2017-11-20T05:22:17.719Z,10.63
2017-11-20T05:24:46.553Z,7.90
2017-11-20T05:27:15.390Z,7.27
2017-11-20T05:29:44.211Z,8.77
2017-11-20T05:32:13.232Z,11.43
2017-11-20T05:34:42.059Z,12.23
2017-11-20T05:37:10.889Z,7.70
2017-11-20T05:39:39.783Z,10.70
2017-11-20T05:42:08.607Z,7.90
2017-11-20T05:44:37.442Z,7.83
2017-11-20T05:47:06.280Z,8.43
2017-11-20T05:49:35.100Z,8.60
2017-11-20T05:52:04.034Z,12.93
2017-11-20T05:54:32.868Z,10.50
2017-11-20T05:57:02.428Z,9.07
2017-11-20T05:59:32.021Z,9.30
2017-11-20T06:02:01.596Z,9.23
2017-11-20T06:04:31.164Z,9.52
2017-11-20T06:07:00.752Z,12.43
2017-11-20T06:09:29.584Z,10.20
2017-11-20T06:11:58.418Z,8.33
2017-11-20T06:14:27.324Z,11.47
2017-11-20T06:16:56.147Z,8.13
2017-11-20T06:19:24.998Z,8.67
2017-11-20T06:21:53.836Z,15.07
2017-11-20T06:24:22.659Z,13.27
2017-11-20T06:26:51.489Z,11.63
2017-11-20T06:29:20.332Z,10.07
2017-11-20T06:31:49.638Z,7.87
2017-11-20T06:34:18.547Z,8.00
2017-11-20T06:36:47.387Z,7.43
2017-11-20T06:39:16.227Z,9.23
2017-11-20T06:41:45.067Z,15.23
2017-11-20T06:44:13.900Z,6.93
2017-11-20T06:46:42.800Z,7.67
2017-11-20T06:49:11.699Z,9.30
2017-11-20T06:51:40.585Z,10.40
2017-11-20T06:54:09.408Z,9.73
2017-11-20T06:56:38.234Z,10.70
2017-11-20T06:59:07.166Z,7.73
2017-11-20T07:01:35.988Z,7.37
2017-11-20T07:04:04.822Z,6.00
2017-11-20T07:06:33.729Z,6.90
2017-11-20T07:09:03.301Z,9.17
2017-11-20T07:11:32.915Z,7.10
2017-11-20T07:14:02.484Z,9.93
2017-11-20T07:16:32.055Z,8.97
2017-11-20T07:19:00.923Z,6.27
2017-11-20T07:21:29.746Z,6.97
2017-11-20T07:23:58.580Z,10.53
2017-11-20T07:26:33.297Z,5.60
2017-11-20T07:29:08.706Z,8.70
2017-11-20T07:31:37.538Z,9.83
2017-11-20T07:34:12.221Z,8.03
2017-11-20T07:36:47.008Z,7.80
2017-11-20T07:39:15.830Z,6.43
2017-11-20T07:41:50.668Z,10.23
2017-11-20T07:44:19.496Z,6.93
2017-11-20T07:46:48.365Z,9.30
2017-11-20T07:49:17.196Z,9.07
2017-11-20T07:51:46.020Z,6.87
2017-11-20T07:54:14.837Z,7.77
2017-11-20T07:56:43.687Z,8.63
2017-11-20T07:59:12.517Z,7.37
2017-11-20T08:01:41.383Z,8.90
2017-11-20T08:04:10.226Z,7.30
2017-11-20T08:06:39.055Z,8.60
2017-11-20T08:09:07.887Z,8.80
2017-11-20T08:11:36.731Z,6.50
2017-11-20T08:14:05.583Z,5.80
2017-11-20T08:16:34.413Z,7.53
2017-11-20T08:19:04.019Z,5.83
2017-11-20T08:34:37.672Z,7.27
2017-11-20T08:37:06.512Z,5.37
2017-11-20T08:39:35.330Z,7.03
2017-11-20T08:42:04.497Z,9.73
2017-11-20T08:44:34.066Z,7.60
2017-11-20T08:47:03.649Z,7.93
2017-11-20T08:49:33.232Z,6.70
2017-11-20T08:52:02.792Z,6.10
2017-11-20T08:54:31.696Z,9.23
2017-11-20T08:57:00.532Z,9.37
2017-11-20T08:59:29.362Z,4.87
2017-11-20T09:01:58.284Z,7.87
2017-11-20T09:04:27.180Z,7.23
2017-11-20T09:06:56.071Z,7.30
2017-11-20T09:09:24.900Z,8.00
2017-11-20T09:11:53.740Z,7.30
2017-11-20T09:14:22.559Z,4.63
2017-11-20T09:16:51.432Z,7.37
2017-11-20T09:19:20.313Z,10.13
2017-11-20T09:21:49.138Z,5.73
2017-11-20T09:24:18.187Z,6.60
2017-11-20T09:26:47.026Z,6.30
2017-11-20T09:29:15.888Z,6.57
2017-11-20T09:31:44.781Z,10.03
2017-11-20T09:34:13.621Z,6.23
2017-11-20T09:36:42.562Z,7.20
2017-11-20T09:39:11.453Z,6.03
2017-11-20T09:41:40.343Z,5.90
2017-11-20T09:44:09.171Z,9.60
2017-11-20T09:46:37.995Z,6.60
2017-11-20T09:49:06.907Z,7.30
2017-11-20T09:51:35.741Z,7.47
2017-11-20T09:54:05.099Z,8.57
2017-11-20T09:56:34.684Z,5.20
2017-11-20T09:59:04.247Z,6.23
2017-11-20T10:01:33.824Z,5.30
2017-11-20T10:04:03.445Z,8.30
2017-11-20T10:06:32.330Z,6.77
2017-11-20T10:09:01.180Z,11.40
2017-11-20T10:11:29.999Z,8.00
2017-11-20T10:13:58.891Z,5.30
2017-11-20T10:16:27.792Z,6.23
2017-11-20T10:18:56.620Z,5.73
2017-11-20T10:21:25.451Z,8.37
2017-11-20T10:23:54.348Z,9.30
2017-11-20T10:26:23.182Z,7.10
2017-11-20T10:28:52.009Z,7.83
2017-11-20T10:31:20.928Z,7.23
2017-11-20T10:33:49.758Z,8.97
2017-11-20T10:36:18.586Z,6.30
2017-11-20T10:38:47.499Z,9.43
2017-11-20T10:41:16.389Z,5.80
2017-11-20T10:43:45.285Z,5.43
2017-11-20T10:46:14.133Z,7.00
2017-11-20T10:48:42.954Z,6.07
2017-11-20T10:51:11.779Z,6.30
2017-11-20T10:53:40.618Z,7.33
2017-11-20T10:56:09.536Z,8.40
2017-11-20T10:58:38.359Z,5.90
2017-11-20T11:01:07.208Z,6.93
2017-11-20T11:03:36.355Z,9.70
2017-11-20T11:06:05.910Z,7.80
2017-11-20T11:08:35.487Z,10.60
2017-11-20T11:11:05.051Z,7.70
2017-11-20T11:13:34.614Z,8.63
2017-11-20T11:16:03.527Z,7.83
2017-11-20T11:18:32.352Z,11.00
2017-11-20T11:21:01.172Z,8.30
2017-11-20T11:23:30.008Z,7.63
2017-11-20T11:25:58.831Z,7.23
2017-11-20T11:28:27.776Z,10.23
2017-11-20T11:30:56.615Z,5.73
2017-11-20T11:33:25.455Z,6.97
2017-11-20T11:35:54.279Z,7.90
2017-11-20T11:38:23.118Z,9.67
2017-11-20T11:40:51.961Z,6.77
2017-11-20T11:43:20.827Z,8.00
2017-11-20T11:45:49.666Z,8.90
2017-11-20T11:48:18.501Z,7.83
2017-11-20T11:50:47.322Z,5.80
2017-11-20T11:53:16.163Z,10.40
2017-11-20T11:55:44.991Z,8.03
2017-11-20T11:58:13.881Z,8.63
2017-11-20T12:00:42.746Z,9.93
2017-11-20T12:03:11.640Z,8.63
2017-11-20T12:05:40.469Z,8.77
2017-11-20T12:08:09.310Z,7.80
2017-11-20T12:10:38.139Z,8.23
2017-11-20T12:13:07.702Z,11.00
2017-11-20T12:15:37.278Z,7.87
2017-11-20T12:18:06.847Z,6.67
2017-11-20T12:20:36.423Z,6.63
2017-11-20T12:23:06.004Z,7.67
2017-11-20T12:25:34.835Z,5.43
2017-11-20T12:28:03.655Z,9.70
2017-11-20T12:30:32.515Z,5.33
2017-11-20T12:33:01.343Z,8.40
2017-11-20T12:35:30.167Z,10.80
2017-11-20T12:37:59.003Z,6.60
2017-11-20T12:40:27.827Z,4.77
2017-11-20T12:42:56.677Z,5.80
2017-11-20T12:45:25.561Z,8.53
2017-11-20T12:47:54.401Z,8.83
2017-11-20T12:50:23.453Z,7.77
2017-11-20T12:52:52.294Z,5.73
2017-11-20T12:55:21.123Z,6.20
2017-11-20T12:57:50.012Z,5.07
2017-11-20T13:00:18.861Z,7.60
2017-11-20T13:02:47.798Z,5.20
2017-11-20T13:05:16.620Z,4.40
2017-11-20T13:07:45.460Z,5.50
2017-11-20T13:10:14.378Z,4.90
2017-11-20T13:12:43.198Z,3.77
2017-11-20T13:15:12.034Z,8.40
2017-11-20T13:20:25.898Z,4.30
2017-11-20T13:22:54.736Z,4.63
2017-11-20T13:25:23.579Z,5.80
2017-11-20T13:27:52.436Z,6.27
2017-11-20T13:30:21.276Z,5.80
2017-11-20T13:32:50.107Z,5.00
2017-11-20T13:35:18.950Z,5.70
2017-11-20T13:37:47.767Z,6.97
2017-11-20T13:40:16.601Z,5.30
2017-11-20T13:42:45.440Z,6.50
2017-11-20T13:45:14.330Z,8.10
2017-11-20T13:47:43.147Z,5.47
2017-11-20T13:50:12.091Z,8.30
2017-11-20T13:52:40.937Z,6.10
2017-11-20T13:55:09.760Z,7.47
2017-11-20T13:57:39.334Z,8.77
2017-11-20T14:00:08.909Z,4.07
2017-11-20T14:02:38.587Z,4.40
2017-11-20T14:05:08.159Z,4.90
2017-11-20T14:07:37.808Z,4.10
2017-11-20T14:10:06.641Z,3.70
2017-11-20T14:12:35.495Z,8.13
2017-11-20T14:15:04.364Z,4.37
2017-11-20T14:17:33.194Z,4.47
2017-11-20T14:20:02.049Z,5.63
2017-11-20T14:22:31.188Z,3.20
2017-11-20T14:25:00.016Z,5.23
2017-11-20T14:27:29.174Z,4.93
2017-11-20T14:29:58.048Z,3.73
2017-11-20T14:32:26.883Z,3.80
2017-11-20T14:34:55.715Z,3.67
2017-11-20T14:37:24.548Z,3.40
2017-11-20T14:39:53.385Z,8.10
2017-11-20T14:42:22.223Z,4.73
2017-11-20T14:44:51.064Z,4.03
2017-11-20T14:47:19.955Z,3.33
2017-11-20T14:49:48.796Z,3.33
2017-11-20T14:52:19.343Z,2.80
2017-11-20T14:54:48.179Z,3.90
2017-11-20T14:57:17.054Z,3.37
2017-11-20T14:59:45.878Z,4.10
2017-11-20T15:02:14.700Z,6.47
2017-11-20T15:04:43.632Z,5.67
2017-11-20T15:07:12.635Z,4.07
2017-11-20T15:09:41.460Z,5.97
2017-11-20T15:12:10.670Z,4.10
2017-11-20T15:14:40.242Z,4.07
2017-11-20T15:17:09.812Z,5.50
2017-11-20T15:19:39.374Z,4.10
2017-11-20T15:22:08.244Z,4.10
2017-11-20T15:24:37.079Z,7.43
2017-11-20T15:27:05.904Z,4.20
2017-11-20T15:29:34.898Z,6.00
2017-11-20T15:32:03.783Z,4.77
2017-11-20T15:34:32.615Z,5.07
2017-11-20T15:37:01.436Z,4.63
2017-11-20T15:39:30.284Z,4.80
2017-11-20T15:41:59.108Z,4.63
2017-11-20T15:44:27.927Z,6.30
2017-11-20T15:46:56.770Z,19.10
2017-11-20T15:49:25.613Z,4.93
2017-11-20T15:51:54.526Z,6.63
2017-11-20T15:54:23.390Z,13.27
2017-11-20T15:56:52.284Z,16.07
2017-11-20T15:59:21.110Z,16.33
2017-11-20T16:01:49.951Z,8.67
2017-11-20T16:04:18.864Z,9.83
2017-11-20T16:06:47.682Z,7.87
2017-11-20T16:09:16.522Z,11.40
2017-11-20T16:11:45.352Z,8.27
2017-11-20T16:14:14.170Z,4.87
2017-11-20T16:16:43.112Z,4.73
2017-11-20T16:19:11.943Z,6.53
2017-11-20T16:21:41.516Z,20.73
2017-11-20T16:24:11.137Z,4.97
2017-11-20T16:26:40.717Z,8.40
2017-11-20T16:29:10.291Z,18.13
2017-11-20T16:31:39.128Z,9.00
2017-11-20T16:34:08.003Z,19.73
2017-11-20T16:36:36.826Z,6.47
2017-11-20T16:39:05.762Z,19.67
2017-11-20T16:41:34.591Z,17.80
2017-11-20T16:44:03.427Z,20.53
2017-11-20T16:46:32.363Z,15.20
2017-11-20T16:49:01.187Z,10.63
2017-11-20T16:51:30.075Z,27.77
2017-11-20T16:53:58.920Z,42.50
2017-11-20T16:56:28.855Z,43.77
2017-11-20T16:59:02.667Z,13.43
2017-11-20T17:01:37.351Z,4.50
2017-11-20T17:04:06.283Z,5.70
2017-11-20T17:06:35.162Z,8.93
2017-11-20T17:09:04.000Z,10.30
2017-11-20T17:11:32.952Z,6.93
2017-11-20T17:14:01.803Z,7.40
2017-11-20T17:16:30.698Z,10.10
2017-11-20T17:18:59.531Z,8.23
2017-11-20T17:21:28.402Z,11.40
2017-11-20T17:23:57.236Z,10.17
2017-11-20T17:26:26.076Z,12.37
2017-11-20T17:28:54.904Z,15.70
2017-11-20T17:31:23.772Z,8.97
2017-11-20T17:33:52.599Z,15.93
2017-11-20T17:36:21.504Z,22.43
2017-11-20T17:38:50.357Z,9.87
2017-11-20T17:41:19.200Z,20.00
2017-11-20T17:43:48.116Z,7.73
2017-11-20T17:46:16.941Z,13.30
2017-11-20T17:48:45.786Z,8.57
2017-11-20T17:51:14.674Z,8.47
2017-11-20T17:53:43.586Z,12.17
2017-11-20T17:56:13.203Z,7.23
2017-11-20T17:58:42.779Z,10.20
2017-11-20T18:01:12.369Z,7.83
2017-11-20T18:03:41.969Z,8.10
2017-11-20T18:06:10.801Z,8.40
2017-11-20T18:08:39.695Z,8.17
2017-11-20T18:11:08.587Z,9.27
2017-11-20T18:13:37.471Z,9.70
2017-11-20T18:16:06.301Z,6.83
2017-11-20T18:18:35.154Z,7.83
2017-11-20T18:21:04.050Z,7.63
2017-11-20T18:23:32.876Z,7.80
2017-11-20T18:26:01.712Z,7.57
2017-11-20T18:28:30.620Z,7.60
2017-11-20T18:30:59.454Z,9.80
2017-11-20T18:33:28.544Z,10.03
2017-11-20T18:35:57.372Z,8.10
2017-11-20T18:38:26.199Z,7.57
2017-11-20T18:40:55.043Z,7.20
2017-11-20T18:43:23.871Z,7.50
2017-11-20T18:45:52.699Z,9.20
2017-11-20T18:48:21.545Z,6.87
2017-11-20T18:50:50.371Z,7.50
2017-11-20T18:53:19.222Z,45.40
2017-11-20T18:55:48.071Z,46.03
2017-11-20T18:58:16.961Z,26.90
2017-11-20T19:00:51.743Z,14.70
2017-11-20T19:03:23.345Z,8.70
2017-11-20T19:05:58.066Z,9.83
2017-11-20T19:08:31.843Z,14.00
2017-11-20T19:11:00.687Z,11.60
2017-11-20T19:13:29.519Z,12.63
2017-11-20T19:15:58.388Z,9.67
2017-11-20T19:18:27.311Z,10.90
2017-11-20T19:20:56.168Z,8.93
2017-11-20T19:23:25.004Z,10.30
2017-11-20T19:25:53.855Z,10.63
2017-11-20T19:28:22.716Z,11.90
2017-11-20T19:30:51.652Z,10.63
2017-11-20T19:33:20.507Z,12.53
2017-11-20T19:35:49.347Z,21.03
2017-11-20T19:38:18.190Z,18.90
2017-11-20T19:40:47.047Z,16.37
2017-11-20T19:43:15.900Z,15.70
2017-11-20T19:45:45.611Z,18.33
2017-11-20T19:48:15.318Z,16.43
2017-11-20T19:50:44.919Z,20.80
2017-11-20T19:53:14.518Z,20.77
2017-11-20T19:55:44.140Z,19.83
2017-11-20T19:58:13.715Z,18.53
2017-11-20T20:00:42.631Z,15.73
2017-11-20T20:03:11.479Z,16.43
2017-11-20T20:05:40.336Z,17.50
2017-11-20T20:08:09.306Z,17.13
2017-11-20T20:10:38.155Z,18.97
2017-11-20T20:13:06.995Z,18.50
2017-11-20T20:15:38.597Z,18.03
2017-11-20T20:18:07.449Z,14.97
2017-11-20T20:20:36.345Z,17.60
2017-11-20T20:23:05.217Z,18.47
2017-11-20T20:25:34.063Z,19.70
2017-11-20T20:28:02.916Z,17.60
2017-11-20T20:30:32.478Z,15.63
2017-11-20T20:33:01.391Z,13.40
2017-11-20T20:35:30.223Z,17.67
2017-11-20T20:37:59.076Z,15.60
2017-11-20T20:40:27.907Z,16.10
2017-11-20T20:42:56.909Z,19.23
2017-11-20T20:45:26.685Z,18.80
2017-11-20T20:47:55.779Z,17.40
2017-11-20T20:50:24.913Z,16.40
2017-11-20T20:52:54.074Z,17.43
2017-11-20T20:55:23.094Z,22.03
2017-11-20T20:57:52.065Z,18.60
2017-11-20T21:00:21.258Z,17.87
2017-11-20T21:02:50.205Z,18.33
2017-11-20T21:05:19.197Z,15.93
2017-11-20T21:07:48.036Z,15.63
2017-11-20T21:10:22.823Z,29.55
2017-11-20T21:12:51.763Z,20.33
2017-11-20T21:15:20.607Z,16.43
2017-11-20T21:17:49.536Z,17.87
2017-11-20T21:20:18.397Z,17.17
2017-11-20T21:22:47.694Z,28.10
2017-11-20T21:25:17.332Z,18.13
2017-11-20T21:27:46.932Z,19.63
2017-11-20T21:30:16.534Z,23.83
2017-11-20T21:32:46.176Z,24.37
2017-11-20T21:35:15.784Z,22.00
2017-11-20T21:37:44.618Z,27.50
2017-11-20T21:40:13.450Z,25.37
2017-11-20T21:42:42.304Z,22.90
2017-11-20T21:45:11.150Z,24.97
2017-11-20T21:47:39.992Z,26.10
2017-11-20T21:50:08.922Z,25.50
2017-11-20T21:52:37.752Z,25.33
2017-11-20T21:55:06.585Z,23.60
2017-11-20T21:57:35.435Z,19.20
2017-11-20T22:00:04.269Z,18.17
2017-11-20T22:02:33.107Z,19.43
2017-11-20T22:05:01.956Z,39.07
2017-11-20T22:07:31.023Z,40.47
2017-11-20T22:09:59.913Z,23.23
2017-11-20T22:12:34.647Z,22.57
2017-11-20T22:15:03.837Z,23.10
2017-11-20T22:17:32.921Z,20.80
2017-11-20T22:20:02.057Z,21.30
2017-11-20T22:22:31.257Z,25.33
2017-11-20T22:25:00.561Z,25.07
2017-11-20T22:27:29.707Z,27.63
2017-11-20T22:29:58.742Z,24.60
2017-11-20T22:32:27.942Z,29.77
2017-11-20T22:34:57.041Z,23.50
2017-11-20T22:37:25.912Z,59.47
2017-11-20T22:39:54.751Z,25.97
2017-11-20T22:42:23.604Z,22.10
2017-11-20T22:44:52.434Z,19.77
2017-11-20T22:47:21.272Z,20.87
2017-11-20T22:49:50.165Z,19.70
2017-11-20T22:52:19.004Z,23.50
2017-11-20T22:54:48.592Z,23.63
2017-11-20T22:57:18.175Z,19.07
2017-11-20T22:59:47.765Z,18.53
2017-11-20T23:02:17.363Z,20.93
2017-11-20T23:04:46.252Z,19.23
2017-11-20T23:07:15.083Z,20.63
2017-11-20T23:09:43.971Z,19.50
2017-11-20T23:12:12.843Z,23.20
2017-11-20T23:14:41.671Z,17.13
2017-11-20T23:17:10.498Z,17.50
2017-11-20T23:19:39.534Z,17.70
2017-11-20T23:22:08.412Z,21.10
2017-11-20T23:24:37.242Z,19.73
2017-11-20T23:27:12.034Z,18.40
2017-11-20T23:29:40.917Z,18.17
2017-11-20T23:32:09.754Z,17.60
2017-11-20T23:34:38.923Z,18.07
2017-11-20T23:37:07.772Z,19.07
2017-11-20T23:39:36.694Z,19.07
2017-11-20T23:42:05.559Z,21.30
2017-11-20T23:44:34.392Z,17.47
2017-11-20T23:47:03.243Z,17.90
2017-11-20T23:49:32.116Z,20.43
2017-11-20T23:52:00.943Z,18.37
2017-11-20T23:54:36.681Z,16.77
2017-11-20T23:57:05.507Z,18.90
2017-11-20T23:59:34.335Z,17.60
